CEST,Max TemperatureF,Mean TemperatureF,Min TemperatureF,Max Dew PointF,MeanDew PointF,Min DewpointF,Max Humidity, Mean Humidity, Min Humidity, Max Sea Level PressureIn, Mean Sea Level PressureIn, Min Sea Level PressureIn, Max VisibilityMiles, Mean VisibilityMiles, Min VisibilityMiles, Max Wind SpeedMPH, Mean Wind SpeedMPH, Max Gust SpeedMPH,PrecipitationIn, CloudCover, Events, WindDirDegrees
2013-5-1,60,46,31,37,34,27,100,63,26,30.34,30.26,30.18,19,6,3,16,7,,0.00,,,53
2013-5-2,62,52,42,41,36,30,81,58,27,30.23,30.18,30.15,19,7,6,17,10,,0.00,8,,35
2013-5-3,66,52,38,43,38,32,81,57,30,30.16,30.07,30.01,17,8,6,14,6,,0.00,,,48
2013-5-4,62,50,37,46,41,37,100,68,38,30.11,30.01,29.95,15,6,4,18,7,31,0.00,6,,244
2013-5-5,65,53,41,49,45,41,100,74,33,30.25,30.17,30.09,17,6,3,12,7,,0.00,4,,237
2013-5-6,73,58,43,52,47,43,100,66,28,30.23,30.13,30.06,15,6,1,13,6,,0.00,,,53
2013-5-7,76,61,46,57,50,43,100,70,24,30.08,30.02,29.95,19,7,1,18,7,32,0.01,5,Rain,62
2013-5-8,72,63,54,59,55,52,100,83,45,29.92,29.81,29.74,9,5,2,21,9,,0.12,7,Rain-Thunderstorm,152
2013-5-9,61,54,48,57,48,39,94,74,43,29.90,29.85,29.80,19,7,4,15,9,23,0.00,5,Rain,237
2013-5-10,59,52,46,47,45,41,87,71,55,29.96,29.83,29.74,17,7,6,25,13,36,0.01,5,Rain,212
2013-5-11,55,50,46,50,45,43,94,82,72,29.95,29.86,29.77,19,7,4,15,11,,0.12,7,Rain,203
2013-5-12,56,50,45,48,44,39,94,79,46,29.96,29.86,29.77,19,7,6,18,11,,0.00,5,Rain,237
2013-5-13,56,51,46,52,44,39,100,79,51,29.92,29.82,29.74,17,6,2,17,11,,0.08,6,Rain,223
2013-5-14,55,48,41,46,43,39,100,82,55,29.78,29.73,29.65,16,7,3,18,11,,0.04,5,Rain,204
2013-5-15,60,53,46,52,48,45,93,81,65,29.65,29.52,29.47,19,6,5,17,8,,0.02,5,Rain,170
2013-5-16,61,51,41,52,47,43,100,86,64,29.64,29.54,29.42,14,6,2,16,6,,0.16,4,Rain,40
2013-5-17,57,53,49,54,50,48,100,92,81,29.63,29.54,29.44,7,4,0,10,6,,0.08,8,Fog-Rain,278
2013-5-18,54,51,48,49,48,46,100,90,74,29.86,29.72,29.62,19,6,2,15,8,,0.04,7,Rain,230
2013-5-19,56,52,48,50,49,46,100,88,69,29.87,29.82,29.77,9,5,2,12,4,,0.00,8,,348
2013-5-20,57,53,49,54,51,49,100,95,84,29.81,29.75,29.71,19,4,0,9,5,,0.00,8,Fog,252
2013-5-21,54,51,48,54,51,46,100,96,91,29.81,29.79,29.77,15,3,1,16,8,,0.08,6,Rain,256
2013-5-22,53,47,41,46,41,37,100,78,55,29.91,29.84,29.80,17,6,2,24,17,37,0.00,7,Rain,315
2013-5-23,50,44,38,43,39,36,100,81,51,29.86,29.76,29.71,19,7,4,10,7,,0.04,4,Rain,238
2013-5-24,56,45,34,43,38,34,100,75,34,30.00,29.86,29.77,19,7,5,14,5,,0.04,4,Rain,186
2013-5-25,51,45,39,47,44,39,100,89,71,29.99,29.95,29.89,11,6,4,16,8,,0.04,7,Rain,311
2013-5-26,50,48,46,48,46,45,100,92,82,29.89,29.83,29.80,7,6,4,20,15,,0.00,8,,320
2013-5-27,64,54,45,48,44,39,100,72,37,29.81,29.78,29.74,8,6,3,16,11,,0.00,7,,325
2013-5-28,68,56,43,54,47,41,100,71,39,29.81,29.68,29.56,19,7,2,14,5,,0.00,1,,67
2013-5-29,60,56,51,55,52,48,100,89,71,29.62,29.52,29.47,16,5,1,15,6,,0.43,6,Rain,28
2013-5-30,63,56,48,55,52,48,100,89,59,29.84,29.74,29.62,7,3,0,10,3,,0.00,6,Fog,313
2013-5-31,65,58,50,55,53,50,100,87,60,29.93,29.85,29.80,17,5,1,21,11,,0.00,6,,339